Latest Coastal Weather Observations for Rottnest Island

IDW60701

Issued at 8:02 pm WST Wednesday 24 August 2016 (issued every 10 minutes, with the page automatically refreshed every 10 minutes)

About coastal observations | Map of coastal stations | Coastal observations for WA | Marine services | Other Formats
Station Details ID: 009193 Name: ROTTNEST ISLAND Lat: -32.01 Lon: 115.50 Height: 43.1 m
Data from the previous 72 hours. | See also: Recent months at Rottnest Island
Date/Time
WST
Temp
°C
Wind Pressure Rain since
9am
mm
Weather Cloud Vis
km
Sea
Height
m
Swell
Dir  Spd
kts
Gust
kts
hPa Trend Height
m
Period
s
Dir
24/08:00pm 13.3 E 13 17 1024.7 - 0.0 - - - - - - -
24/07:30pm 13.4 E 12 17 1024.9 - 0.0 - - - - - - -
24/07:00pm 13.6 E 11 15 1024.7 - 0.0 - - - - - - -
24/06:30pm 13.7 E 9 13 1024.4 - 0.0 - - - - - - -
24/06:00pm 13.7 E 9 12 1024.1 - 0.0 - - - - - - -
24/05:30pm 13.9 SE 5 6 1023.8 - 0.0 - - - - - - -
24/05:00pm 13.9 SSE 8 10 1023.5 - 0.0 - - - - - - -
24/04:30pm 14.2 SSE 7 9 1023.5 - 0.0 - - - - - - -
24/04:00pm 14.3 SSE 8 9 1023.6 - 0.0 - - - - - - -
24/03:30pm 14.2 S 8 11 1023.5 - 0.0 - - - - - - -
24/03:00pm 14.4 S 9 11 1023.6 - 0.0 - - - - - - -
24/02:30pm 14.2 SSE 10 13 1023.6 - 0.0 - - - - - - -
24/02:00pm 14.6 ENE 9 14 1023.8 - 0.0 - - - - - - -
24/01:30pm 14.1 ENE 8 11 1024.3 - 0.0 - - - - - - -
24/01:00pm 14.6 ENE 7 13 1024.6 - 0.0 - - - - - - -
24/12:30pm 13.8 E 9 13 1025.1 - 0.0 - - - - - - -
24/12:00pm 13.4 E 11 15 1025.4 - 0.0 - - - - - - -
24/11:30am 13.0 ENE 12 17 1025.8 - 0.0 - - - - - - -
24/11:00am 12.9 ENE 12 18 1025.8 - 0.0 - - - - - - -
24/10:30am 12.2 ENE 14 19 1026.1 - 0.0 - - - - - - -
24/10:00am 11.9 ENE 15 20 1026.2 - 0.0 - - - - - - -
24/09:30am 11.3 E 13 18 1026.3 - 0.0 - - - - - - -
24/09:00am 10.5 ENE 15 20 1026.2 - 0.0 - - - - - - -
24/08:30am 10.5 ENE 13 18 1026.1 - 0.0 - - - - - - -
24/08:00am 10.0 E 14 19 1025.6 - 0.0 - - - - - - -
24/07:30am 9.6 E 13 19 1025.3 - 0.0 - - - - - - -
24/07:00am 9.1 E 11 16 1025.2 - 0.0 - - - - - - -
24/06:30am 9.0 E 11 17 1025.1 - 0.0 - - - - - - -
24/06:00am 9.2 E 11 17 1024.8 - 0.0 - - - - - - -
24/05:30am 9.5 ENE 13 19 1024.7 - 0.0 - - - - - - -
24/05:00am 9.4 E 11 16 1024.4 - 0.0 - - - - - - -
24/04:30am 9.8 E 12 16 1024.4 - 0.0 - - - - - - -
24/04:00am 9.9 ENE 13 19 1024.5 - 0.0 - - - - - - -
24/03:30am 10.0 ENE 14 20 1024.5 - 0.0 - - - - - - -
24/03:00am 10.1 E 12 16 1024.6 - 0.0 - - - - - - -
24/02:30am 10.3 E 12 17 1024.7 - 0.0 - - - - - - -
24/02:00am 10.4 E 12 16 1024.7 - 0.0 - - - - - - -
24/01:30am 10.5 E 13 18 1024.8 - 0.0 - - - - - - -
24/01:00am 10.7 E 12 15 1024.8 - 0.0 - - - - - - -
24/12:30am 11.0 E 12 15 1024.6 - 0.0 - - - - - - -
24/12:00am 11.4 E 13 17 1024.5 - 0.0 - - - - - - -
 
Date/Time
WST
Temp
°C
Wind Pressure Rain since
9am
mm
Weather Cloud Vis
km
Sea
Height
m
Swell
Dir  Spd
kts
Gust
kts
hPa Trend Height
m
Period
s
Dir
23/11:30pm 11.6 E 11 17 1024.4 - 0.0 - - - - - - -
23/11:00pm 11.7 E 10 14 1024.6 - 0.0 - - - - - - -
23/10:30pm 11.7 E 10 13 1024.5 - 0.0 - - - - - - -
23/10:00pm 11.9 E 9 11 1024.5 - 0.0 - - - - - - -
23/09:30pm 12.1 E 8 11 1024.5 - 0.0 - - - - - - -
23/09:00pm 12.4 E 9 11 1024.5 - 0.0 - - - - - - -
23/08:30pm 12.6 E 9 12 1024.4 - 0.0 - - - - - - -
23/08:00pm 12.9 E 10 13 1024.2 - 0.0 - - - - - - -
23/07:30pm 13.5 E 9 13 1023.8 - 0.0 - - - - - - -
23/07:00pm 13.9 SE 10 16 1023.4 - 0.0 - - - - - - -
23/06:30pm 13.8 SE 9 13 1023.2 - 0.0 - - - - - - -
23/06:00pm 14.0 SSE 11 14 1022.9 - 0.0 - - - - - - -
23/05:30pm 14.0 SSE 11 15 1022.6 - 0.0 - - - - - - -
23/05:00pm 14.0 S 11 15 1022.4 - 0.0 - - - - - - -
23/04:30pm 14.0 S 13 16 1022.3 - 0.0 - - - - - - -
23/04:00pm 14.2 SSW 11 13 1022.4 - 0.0 - - - - - - -
23/03:30pm 14.0 S 11 14 1022.2 - 0.0 - - - - - - -
23/03:00pm 14.1 S 10 14 1022.5 - 0.0 - - - - - - -
23/02:30pm 14.0 S 9 12 1022.4 - 0.0 - - - - - - -
23/02:00pm 14.6 S 9 12 1022.5 - 0.0 - - - - - - -
23/01:30pm 14.0 SSE 11 13 1022.5 - 0.0 - - - - - - -
23/01:00pm 13.6 SSE 10 15 1023.0 - 0.0 - - - - - - -
23/12:30pm 13.5 SSE 8 12 1023.5 - 0.0 - - - - - - -
23/12:00pm 13.6 SE 9 11 1023.8 - 0.0 - - - - - - -
23/11:30am 13.0 SE 11 15 1024.1 - 0.0 - - - - - - -
23/11:00am 12.8 SE 10 15 1024.3 - 0.0 - - - - - - -
23/10:30am 12.4 ESE 9 13 1024.6 - 0.0 - - - - - - -
23/10:00am 12.2 ESE 9 13 1025.0 - 0.0 - - - - - - -
23/09:30am 12.4 ESE 7 11 1025.2 - 0.0 - - - - - - -
23/09:00am 12.1 ESE 8 12 1025.2 - 0.0 - - - - - - -
23/08:30am 11.6 ESE 8 11 1025.0 - 0.0 - - - - - - -
23/08:00am 11.0 E 8 11 1024.6 - 0.0 - - - - - - -
23/07:30am 10.0 E 8 10 1024.4 - 0.0 - - - - - - -
23/07:00am 9.4 E 7 9 1024.4 - 0.0 - - - - - - -
23/06:30am 9.5 E 8 9 1024.2 - 0.0 - - - - - - -
23/06:00am 9.6 E 7 9 1024.1 - 0.0 - - - - - - -
23/05:30am 9.6 E 7 9 1023.8 - 0.0 - - - - - - -
23/05:00am 9.7 E 7 9 1023.7 - 0.0 - - - - - - -
23/04:30am 9.9 E 7 9 1023.5 - 0.0 - - - - - - -
23/04:00am 10.0 E 7 9 1023.3 - 0.0 - - - - - - -
23/03:30am 10.3 E 7 9 1023.4 - 0.0 - - - - - - -
23/03:00am 10.5 ESE 7 9 1023.4 - 0.0 - - - - - - -
23/02:30am 10.7 ESE 8 10 1023.5 - 0.0 - - - - - - -
23/02:00am 10.9 ESE 7 9 1023.5 - 0.0 - - - - - - -
23/01:30am 11.7 SE 11 14 1023.7 - 0.0 - - - - - - -
23/01:00am 11.8 SE 11 15 1023.6 - 0.0 - - - - - - -
23/12:30am 12.2 SE 12 15 1023.6 - 0.0 - - - - - - -
23/12:00am 12.2 SE 12 16 1023.8 - 0.0 - - - - - - -
 
Date/Time
WST
Temp
°C
Wind Pressure Rain since
9am
mm
Weather Cloud Vis
km
Sea
Height
m
Swell
Dir  Spd
kts
Gust
kts
hPa Trend Height
m
Period
s
Dir
22/11:30pm 12.3 SE 13 17 1023.9 - 0.0 - - - - - - -
22/11:00pm 12.3 SE 12 15 1023.9 - 0.0 - - - - - - -
22/10:30pm 12.7 SE 13 18 1024.0 - 0.0 - - - - - - -
22/10:00pm 13.2 SSE 15 20 1023.9 - 0.0 - - - - - - -
22/09:30pm 13.3 SSE 17 21 1023.9 - 0.0 - - - - - - -
22/09:00pm 13.3 SSE 18 23 1023.7 - 0.0 - - - - - - -
22/08:30pm 13.5 SSE 20 25 1023.3 - 0.0 - - - - - - -
22/08:00pm 13.6 S 20 25 1023.0 - 0.0 - - - - - - -
22/07:30pm 13.5 SSE 19 24 1022.9 - 0.0 - - - - - - -
22/07:00pm 13.8 S 21 26 1022.5 - 0.0 - - - - - - -
22/06:30pm 13.4 S 22 26 1022.0 - 0.0 - - - - - - -
22/06:00pm 13.3 S 25 29 1021.6 - 0.0 - - - - - - -
22/05:30pm 13.4 S 25 30 1021.3 - 0.0 - - - - - - -
22/05:00pm 13.5 S 23 28 1021.3 - 0.0 - - - - - - -
22/04:30pm 13.8 S 23 28 1020.9 - 0.0 - - - - - - -
22/04:00pm 13.9 S 23 31 1020.9 - 0.0 - - - - - - -
22/03:30pm 14.0 S 19 24 1021.1 - 0.0 - - - - - - -
22/03:00pm 14.0 S 19 25 1020.9 - 0.0 - - - - - - -
22/02:30pm 14.6 S 21 29 1021.2 - 0.0 - - - - - - -
22/02:00pm 14.4 S 22 27 1021.0 - 0.0 - - - - - - -
22/01:30pm 14.0 S 23 29 1021.2 - 0.0 - - - - - - -
22/01:00pm 13.9 S 27 34 1020.9 - 0.0 - - - - - - -
22/12:30pm 13.8 S 26 33 1021.4 - 0.0 - - - - - - -
22/12:00pm 13.9 S 29 34 1021.5 - 0.0 - - - - - - -
22/11:30am 13.6 S 28 35 1021.5 - 0.0 - - - - - - -
22/11:00am 13.8 S 26 34 1021.8 - 0.0 - - - - - - -
22/10:30am 13.6 SSE 26 32 1022.0 - 0.0 - - - - - - -
22/10:00am 13.2 SSE 23 30 1021.8 - 0.0 - - - - - - -
22/09:30am 13.3 SSE 23 31 1021.7 - 0.0 - - - - - - -
22/09:00am 13.3 S 26 31 1021.2 - 5.0 - - - - - - -
22/08:30am 13.0 SSE 26 34 1021.0 - 5.0 - - - - - - -
22/08:00am 12.4 SSE 26 34 1020.5 - 5.0 - - - - - - -
22/07:30am 12.1 SSE 27 33 1020.0 - 5.0 - - - - - - -
22/07:00am 11.9 S 25 33 1019.7 - 5.0 - - - - - - -
22/06:30am 11.9 SSE 27 34 1018.8 - 5.0 - - - - - - -
22/06:00am 11.8 SSE 24 30 1018.7 - 5.0 - - - - - - -
22/05:30am 12.2 SSE 25 31 1018.4 - 5.0 - - - - - - -
22/05:00am 11.9 SSE 24 32 1018.2 - 5.0 - - - - - - -
22/04:30am 11.7 SSE 25 34 1017.6 - 5.0 - - - - - - -
22/04:00am 10.0 S 24 32 1017.8 - 5.0 - - - - - - -
22/03:49am 10.5 S 23 33 1018.4 - 4.2 - - - - - - -
22/03:30am 13.1 S 25 32 1017.4 - 3.4 - - - - - - -
22/03:00am 13.0 S 28 34 1017.5 - 3.4 - - - - - - -
22/02:47am 13.2 S 25 35 1017.3 - 3.4 - - - - - - -
22/02:30am 13.1 S 25 32 1017.0 - 3.4 - - - - - - -
22/02:00am 13.1 S 24 33 1017.3 - 3.4 - - - - - - -
22/01:56am 13.3 SSE 23 33 1017.0 - 3.4 - - - - - - -
22/01:30am 13.2 S 29 36 1016.7 - 3.4 - - - - - - -
22/01:00am 13.2 S 28 35 1016.4 - 3.4 - - - - - - -
22/12:30am 13.2 S 29 37 1016.5 - 3.4 - - - - - - -
22/12:00am 13.1 S 29 37 1016.3 - 3.4 - - - - - - -
 
Date/Time
WST
Temp
°C
Wind Pressure Rain since
9am
mm
Weather Cloud Vis
km
Sea
Height
m
Swell
Dir  Spd
kts
Gust
kts
hPa Trend Height
m
Period
s
Dir
21/11:30pm 13.0 S 30 37 1016.1 - 3.4 - - - - - - -
21/11:00pm 12.8 S 27 35 1016.5 - 3.4 - - - - - - -
21/10:30pm 12.6 S 29 36 1016.2 - 3.4 - - - - - - -
21/10:10pm 9.9 S 27 41 1015.6 - 2.8 - - - - - - -
21/10:00pm 12.0 S 29 37 1016.0 - 2.6 - - - - - - -
21/09:30pm 10.5 S 35 47 1015.4 - 2.4 - - - - - - -
21/09:24pm 11.0 S 30 47 1015.5 - 2.2 - - - - - - -
21/09:22pm 11.8 S 28 45 1015.4 - 2.0 - - - - - - -
21/09:01pm 13.2 SSW 23 33 1015.9 - 2.0 - - - - - - -
21/09:00pm 13.1 SSW 24 33 1015.9 - 2.0 - - - - - - -
21/08:30pm 11.6 SSW 30 44 1015.2 - 2.0 - - - - - - -
21/08:20pm 13.8 S 28 38 1015.1 - 2.0 - - - - - - -

Other Formats:

Comma delimited format used in spreadsheet applications
http://www.bom.gov.au/fwo/IDW60701/IDW60701.94602.axf

JavaScript Object Notation format (JSON) in row-major order
http://www.bom.gov.au/fwo/IDW60701/IDW60701.94602.json